Time;durP1;ratioP1;P1;durP2;ratioP2;P2;SDS_P1;SDS_P2;PMS_P1;PMS_P2;Temp;Humidity;BMP_temperature;BMP_pressure;BME280_temperature;BME280_humidity;BME280_pressure;Samples;Min_cycle;Max_cycle;Signal;HPM_P1;HPM_P2
2023/05/22 00:02:21;;;;;;;14.30;8.20;;;;;;;13.19;57.93;99777.66;107408;1254;75008;-38
2023/05/22 00:04:49;;;;;;;14.70;8.70;;;;;;;13.19;57.85;99774.63;107306;1254;62521;-38
2023/05/22 00:07:17;;;;;;;14.90;9.10;;;;;;;13.18;57.83;99776.94;107394;1258;62240;-38
2023/05/22 00:09:45;;;;;;;17.00;9.10;;;;;;;13.16;58.14;99776.45;107370;1254;76147;-38
2023/05/22 00:12:12;;;;;;;13.40;9.50;;;;;;;13.14;58.39;99778.20;107659;1254;67723;-38
2023/05/22 00:14:40;;;;;;;14.00;9.50;;;;;;;13.11;58.81;99781.34;107382;1258;75002;-38
2023/05/22 00:17:09;;;;;;;14.40;9.40;;;;;;;13.08;59.33;99779.70;107295;1253;61747;-38
2023/05/22 00:19:36;;;;;;;14.60;8.80;;;;;;;13.08;59.68;99778.39;107443;1254;60341;-38
2023/05/22 00:22:04;;;;;;;13.70;8.60;;;;;;;13.09;60.05;99780.35;107296;1258;76009;-38
2023/05/22 00:24:31;;;;;;;13.60;9.20;;;;;;;13.04;60.83;99780.21;107406;1258;68277;-38
2023/05/22 00:26:58;;;;;;;13.90;9.30;;;;;;;12.89;60.92;99780.27;107393;1254;71384;-38
2023/05/22 00:29:26;;;;;;;12.90;8.80;;;;;;;12.69;61.35;99773.39;107549;1255;62412;-38
2023/05/22 00:31:55;;;;;;;14.40;8.90;;;;;;;12.62;61.93;99775.16;107326;1259;61023;-38
2023/05/22 00:34:22;;;;;;;12.00;8.50;;;;;;;12.61;62.14;99773.73;107299;1253;76085;-38
2023/05/22 00:36:50;;;;;;;14.00;9.60;;;;;;;12.62;62.27;99774.76;107237;1255;69742;-38
2023/05/22 00:39:17;;;;;;;15.40;9.90;;;;;;;12.61;62.32;99773.89;107404;1260;75238;-38
2023/05/22 00:41:44;;;;;;;15.80;10.20;;;;;;;12.59;62.45;99770.43;107545;1258;61150;-38
2023/05/22 00:44:12;;;;;;;14.80;10.30;;;;;;;12.57;62.35;99769.94;107370;1258;62117;-38
2023/05/22 00:46:39;;;;;;;15.60;10.90;;;;;;;12.54;62.11;99767.70;107418;1259;76118;-38
2023/05/22 00:49:07;;;;;;;16.90;11.00;;;;;;;12.49;62.11;99767.85;107494;1259;70033;-38
2023/05/22 00:51:34;;;;;;;18.90;11.70;;;;;;;12.43;62.34;99767.59;107434;1254;74988;-38
2023/05/22 00:54:01;;;;;;;17.20;11.30;;;;;;;12.39;62.53;99769.85;107315;1256;61121;-38
2023/05/22 00:56:29;;;;;;;21.10;12.50;;;;;;;12.38;62.99;99768.74;107315;1259;61428;-38
2023/05/22 00:58:57;;;;;;;15.90;10.80;;;;;;;12.38;63.53;99771.07;107577;1254;74872;-39
2023/05/22 01:01:25;;;;;;;20.40;12.20;;;;;;;12.44;63.89;99769.31;107475;1254;67160;-38
2023/05/22 01:03:52;;;;;;;18.30;10.90;;;;;;;12.52;63.85;99774.98;107591;1254;74862;-38
2023/05/22 01:06:20;;;;;;;21.40;12.10;;;;;;;12.57;63.65;99775.06;107406;1258;61971;-38
2023/05/22 01:08:47;;;;;;;17.70;11.80;;;;;;;12.63;63.65;99772.45;107484;1259;61464;-38
2023/05/22 01:11:24;;;;;;;18.60;12.00;;;;;;;12.69;63.73;99768.20;107424;1255;75917;-38
2023/05/22 01:14:15;;;;;;;17.10;12.10;;;;;;;12.75;63.79;99768.61;107420;1255;69322;-38
2023/05/22 01:16:53;;;;;;;15.60;11.00;;;;;;;12.80;63.74;99768.91;107477;1258;74851;-38
2023/05/22 01:19:40;;;;;;;18.60;11.50;;;;;;;12.83;63.91;99776.11;107390;1258;61998;-38
2023/05/22 01:22:26;;;;;;;18.60;11.40;;;;;;;12.86;63.79;99773.06;107312;1258;62589;-38
2023/05/22 01:24:53;;;;;;;16.00;11.20;;;;;;;12.86;63.04;99767.70;107321;1253;75903;-38
2023/05/22 01:27:49;;;;;;;18.80;11.70;;;;;;;12.81;62.43;99766.92;107355;1254;70332;-38
2023/05/22 01:30:41;;;;;;;18.00;12.20;;;;;;;12.76;62.07;99771.74;107238;1254;74999;-38
2023/05/22 01:33:11;;;;;;;17.20;12.20;;;;;;;12.67;61.68;99773.15;107532;1254;60902;-38
2023/05/22 01:35:38;;;;;;;17.20;11.90;;;;;;;12.56;61.17;99769.14;107303;1254;62652;-38
2023/05/22 01:38:06;;;;;;;18.70;12.20;;;;;;;12.46;60.76;99770.45;107307;1254;76099;-38
2023/05/22 01:40:33;;;;;;;17.60;12.30;;;;;;;12.34;60.41;99769.76;107413;1258;69983;-38
2023/05/22 01:43:03;;;;;;;19.80;12.10;;;;;;;12.21;60.33;99766.10;107541;1255;72827;-38
2023/05/22 01:45:30;;;;;;;17.30;12.10;;;;;;;12.06;60.34;99763.25;107303;1260;61187;-38
2023/05/22 01:47:58;;;;;;;26.30;12.80;;;;;;;11.92;60.48;99762.81;107317;1254;62628;-38
2023/05/22 01:50:25;;;;;;;16.80;12.30;;;;;;;11.81;60.87;99758.80;107654;1257;76136;-38
2023/05/22 01:53:14;;;;;;;23.00;12.20;;;;;;;11.69;61.16;99755.90;107639;1256;70252;-38
2023/05/22 01:55:59;;;;;;;17.80;11.70;;;;;;;11.59;61.42;99756.77;107607;1257;75038;-38
2023/05/22 01:58:44;;;;;;;19.50;11.70;;;;;;;11.55;61.95;99751.27;107723;1257;63068;-38
2023/05/22 02:01:11;;;;;;;19.50;12.40;;;;;;;11.55;62.29;99749.95;107513;1253;61958;-38
2023/05/22 02:03:38;;;;;;;18.80;12.00;;;;;;;11.52;62.60;99747.08;107269;1255;72590;-38
2023/05/22 02:06:07;;;;;;;20.40;13.10;;;;;;;11.50;62.78;99746.97;107550;1254;70316;-37
2023/05/22 02:08:37;;;;;;;19.00;13.00;;;;;;;11.46;62.84;99745.16;107353;1259;71789;-38
2023/05/22 02:11:04;;;;;;;19.40;12.10;;;;;;;11.41;63.05;99745.21;107471;1254;60994;-38
2023/05/22 02:13:32;;;;;;;19.30;13.00;;;;;;;11.38;63.54;99745.84;107496;1254;61172;-38
2023/05/22 02:15:59;;;;;;;16.30;11.80;;;;;;;11.33;63.75;99746.05;107438;1259;74080;-38
2023/05/22 02:18:30;;;;;;;18.30;12.60;;;;;;;11.28;63.91;99745.24;107474;1254;68805;-38
2023/05/22 02:20:58;;;;;;;19.10;12.00;;;;;;;11.27;64.17;99745.46;107456;1254;73866;-38
2023/05/22 02:23:28;;;;;;;15.70;11.10;;;;;;;11.33;64.35;99747.15;107519;1257;64290;-38
2023/05/22 02:25:55;;;;;;;19.10;12.50;;;;;;;11.42;64.40;99749.97;107529;1254;60328;-38
2023/05/22 02:28:23;;;;;;;18.20;12.50;;;;;;;11.47;64.71;99752.48;107512;1254;74673;-38
2023/05/22 02:30:50;;;;;;;16.80;10.90;;;;;;;11.51;65.06;99751.86;107555;1256;70250;-37
2023/05/22 02:33:17;;;;;;;16.10;11.80;;;;;;;11.54;64.83;99750.16;107345;1254;73922;-37
2023/05/22 02:35:48;;;;;;;16.50;12.10;;;;;;;11.45;64.07;99738.70;107344;1257;61248;-37
2023/05/22 02:38:15;;;;;;;19.40;12.20;;;;;;;11.42;63.89;99750.28;107433;1254;60332;-38
2023/05/22 02:40:43;;;;;;;18.30;12.70;;;;;;;11.39;63.71;99751.54;107442;1254;71796;-37
2023/05/22 02:43:10;;;;;;;21.50;12.50;;;;;;;11.37;63.75;99751.70;107381;1260;69428;-37
2023/05/22 02:45:38;;;;;;;19.00;13.30;;;;;;;11.28;63.76;99744.31;107208;1254;74688;-37
2023/05/22 02:48:05;;;;;;;18.70;12.70;;;;;;;11.30;64.00;99746.83;107607;1254;61495;-37
2023/05/22 02:50:33;;;;;;;18.10;11.10;;;;;;;11.28;64.18;99746.34;107452;1254;62506;-37
2023/05/22 02:53:00;;;;;;;17.30;11.80;;;;;;;11.33;64.24;99746.90;107364;1253;74795;-37
2023/05/22 02:55:27;;;;;;;16.50;11.40;;;;;;;11.43;64.67;99747.42;107288;1254;69473;-38
2023/05/22 02:57:54;;;;;;;17.10;11.20;;;;;;;11.50;64.92;99749.67;107596;1254;74967;-37
2023/05/22 03:00:24;;;;;;;18.30;10.80;;;;;;;11.56;65.42;99744.83;107489;1254;61412;-37
2023/05/22 03:02:51;;;;;;;16.60;11.10;;;;;;;11.64;66.21;99747.80;107466;1258;60367;-37
2023/05/22 03:05:19;;;;;;;14.70;10.10;;;;;;;11.72;66.82;99745.81;107575;1254;75439;-37
2023/05/22 03:07:47;;;;;;;15.30;10.00;;;;;;;11.81;67.37;99749.26;107561;1254;67991;-37
2023/05/22 03:10:16;;;;;;;16.30;9.60;;;;;;;11.89;67.91;99755.00;107550;1254;74049;-37
2023/05/22 03:12:43;;;;;;;15.20;9.90;;;;;;;12.04;68.16;99754.75;107218;1253;62405;-38
2023/05/22 03:15:11;;;;;;;13.70;10.00;;;;;;;12.18;68.42;99758.44;107704;1254;60299;-38
2023/05/22 03:17:39;;;;;;;13.40;9.10;;;;;;;12.31;68.25;99762.80;107631;1254;74807;-38
2023/05/22 03:20:07;;;;;;;16.80;10.60;;;;;;;12.42;67.89;99762.99;107433;1255;67561;-38
2023/05/22 03:22:35;;;;;;;17.50;10.30;;;;;;;12.51;67.40;99764.02;107460;1258;74947;-38
2023/05/22 03:25:05;;;;;;;15.90;10.60;;;;;;;12.58;66.72;99766.38;107485;1254;62629;-38
2023/05/22 03:27:32;;;;;;;16.70;10.20;;;;;;;12.61;66.54;99763.79;107586;1254;61131;-38
2023/05/22 03:30:00;;;;;;;16.20;10.20;;;;;;;12.68;66.26;99765.31;107422;1258;74084;-38
2023/05/22 03:32:28;;;;;;;12.80;9.00;;;;;;;12.78;66.08;99764.45;107505;1258;67954;-38
2023/05/22 03:34:57;;;;;;;14.80;9.20;;;;;;;12.84;66.21;99760.67;107504;1257;74947;-38
2023/05/22 03:37:24;;;;;;;15.10;8.60;;;;;;;12.92;66.18;99761.10;107397;1254;61434;-38
2023/05/22 03:39:52;;;;;;;11.00;8.20;;;;;;;12.98;66.03;99761.68;107286;1254;60874;-38
2023/05/22 03:42:24;;;;;;;14.00;8.70;;;;;;;13.04;65.61;99757.03;107282;1254;73759;-38
2023/05/22 03:44:51;;;;;;;13.80;7.90;;;;;;;13.08;65.22;99757.46;107362;1258;68905;-38
2023/05/22 03:47:19;;;;;;;13.20;8.20;;;;;;;13.13;65.32;99760.21;107478;1259;71927;-38
2023/05/22 03:49:46;;;;;;;13.00;8.00;;;;;;;13.24;64.52;99758.45;107248;1254;64230;-38
2023/05/22 03:52:13;;;;;;;11.30;7.80;;;;;;;13.35;64.23;99755.48;107279;1253;62618;-38
2023/05/22 03:54:42;;;;;;;10.40;7.20;;;;;;;13.44;63.87;99750.48;107427;1254;76020;-38
2023/05/22 03:57:09;;;;;;;11.90;7.50;;;;;;;13.54;63.86;99750.92;107259;1254;69843;-38
2023/05/22 03:59:37;;;;;;;13.50;7.80;;;;;;;13.64;63.83;99749.88;107389;1254;74759;-38
2023/05/22 04:02:04;;;;;;;8.70;6.90;;;;;;;13.72;62.90;99749.81;107423;1253;62514;-38
2023/05/22 04:04:32;;;;;;;10.70;8.10;;;;;;;13.79;62.12;99749.51;107262;1253;61739;-38
2023/05/22 04:07:01;;;;;;;11.50;7.70;;;;;;;13.84;61.44;99748.71;107476;1254;76155;-38
2023/05/22 04:09:30;;;;;;;12.50;7.30;;;;;;;13.87;61.03;99751.09;106700;1254;1003080;-38
2023/05/22 04:11:57;;;;;;;11.60;7.10;;;;;;;13.92;61.21;99744.22;107376;1254;74857;-38
2023/05/22 04:14:25;;;;;;;11.70;7.50;;;;;;;13.97;61.03;99746.15;107286;1254;62609;-38
2023/05/22 04:16:52;;;;;;;11.00;7.20;;;;;;;14.03;61.02;99747.61;107303;1254;61535;-38
2023/05/22 04:19:20;;;;;;;11.80;7.20;;;;;;;14.13;60.96;99745.47;107426;1254;75620;-38
2023/05/22 04:21:48;;;;;;;14.10;7.50;;;;;;;14.25;61.08;99749.95;107427;1258;66788;-38
2023/05/22 04:24:17;;;;;;;11.50;6.90;;;;;;;14.37;60.97;99747.83;107433;1254;71707;-38
2023/05/22 04:26:44;;;;;;;11.20;7.00;;;;;;;14.46;60.18;99745.43;107436;1254;62344;-38
2023/05/22 04:29:13;;;;;;;11.80;7.00;;;;;;;14.54;59.99;99746.75;107484;1254;62587;-38
2023/05/22 04:31:41;;;;;;;10.10;6.80;;;;;;;14.63;59.45;99747.30;107447;1253;75033;-38
2023/05/22 04:34:11;;;;;;;10.80;6.90;;;;;;;14.72;59.53;99747.38;107368;1254;68193;-38
2023/05/22 04:36:39;;;;;;;10.10;6.70;;;;;;;14.80;58.91;99743.70;107327;1254;74459;-38
2023/05/22 04:39:06;;;;;;;9.90;6.30;;;;;;;14.88;57.76;99741.98;107344;1254;61578;-38
2023/05/22 04:41:34;;;;;;;10.40;7.20;;;;;;;14.95;57.63;99741.71;107367;1254;62630;-38
2023/05/22 04:44:02;;;;;;;12.30;6.80;;;;;;;15.02;57.32;99739.58;107452;1253;76128;-38
2023/05/22 04:46:30;;;;;;;12.20;6.60;;;;;;;15.09;57.42;99739.63;107459;1253;69642;-38
2023/05/22 04:49:00;;;;;;;10.60;6.70;;;;;;;15.17;56.78;99737.89;107451;1254;74682;-38
2023/05/22 04:51:30;;;;;;;8.70;5.40;;;;;;;15.26;55.61;99733.57;107441;1253;60449;-38
2023/05/22 04:56:32;;;;;;;8.30;5.50;;;;;;;15.38;54.07;99732.62;104150;1291;601091;-38
2023/05/22 04:59:07;;;;;;;10.30;5.90;;;;;;;15.46;53.93;99731.42;106671;1266;61150;-38
2023/05/22 05:01:37;;;;;;;7.00;5.50;;;;;;;15.53;52.79;99722.65;106544;1266;60608;-38
2023/05/22 05:04:04;;;;;;;6.80;4.70;;;;;;;15.67;52.60;99729.97;106626;1266;74772;-38
2023/05/22 05:06:33;;;;;;;10.50;4.80;;;;;;;15.76;51.31;99729.94;106656;1265;67148;-38
2023/05/22 05:09:01;;;;;;;10.30;5.10;;;;;;;15.85;51.46;99733.88;106479;1266;213460;-38
2023/05/22 05:11:29;;;;;;;7.90;4.80;;;;;;;15.94;50.87;99731.25;106702;1264;62616;-38
2023/05/22 05:13:56;;;;;;;11.00;4.80;;;;;;;16.02;50.67;99728.23;106773;1266;61132;-38
2023/05/22 05:16:25;;;;;;;15.30;5.40;;;;;;;16.11;50.66;99730.43;106653;1264;72855;-38
2023/05/22 05:18:52;;;;;;;20.30;5.60;;;;;;;16.18;50.46;99730.30;106774;1264;70108;-38
2023/05/22 05:21:20;;;;;;;10.50;5.40;;;;;;;16.25;49.04;99731.33;106670;1263;73974;-38
2023/05/22 05:23:47;;;;;;;10.60;5.30;;;;;;;16.30;48.92;99738.21;106824;1263;62150;-38
2023/05/22 05:26:14;;;;;;;7.90;5.40;;;;;;;16.35;49.50;99742.66;106854;1263;61370;-38
2023/05/22 05:28:42;;;;;;;9.40;5.70;;;;;;;16.40;49.84;99741.59;106730;1263;75276;-38
2023/05/22 05:31:09;;;;;;;10.50;5.40;;;;;;;16.45;48.93;99736.66;106877;1263;66006;-38
2023/05/22 05:34:06;;;;;;;9.00;5.80;;;;;;;16.51;48.69;99739.26;106790;1263;74135;-38
2023/05/22 05:36:56;;;;;;;11.30;6.10;;;;;;;16.54;48.93;99741.45;106708;1263;59776;-38
2023/05/22 05:39:24;;;;;;;9.30;5.30;;;;;;;16.57;49.41;99739.75;106780;1263;62733;-38
2023/05/22 05:41:52;;;;;;;11.20;5.90;;;;;;;16.66;49.30;99738.59;106826;1263;72308;-38
2023/05/22 05:44:20;;;;;;;7.70;5.50;;;;;;;16.75;49.24;99731.95;106774;1263;69050;-38
2023/05/22 05:46:47;;;;;;;9.50;6.00;;;;;;;16.82;48.38;99732.58;106786;1264;75248;-38
2023/05/22 05:49:18;;;;;;;9.50;5.70;;;;;;;16.89;48.80;99727.16;106752;1263;60170;-38
2023/05/22 05:51:46;;;;;;;12.40;5.90;;;;;;;16.97;48.53;99723.16;106752;1267;59593;-38
2023/05/22 05:54:15;;;;;;;11.60;5.90;;;;;;;17.06;47.60;99720.41;106665;1263;75330;-38
2023/05/22 05:56:44;;;;;;;11.40;5.60;;;;;;;17.16;46.93;99723.13;106742;1262;69112;-38
2023/05/22 05:59:12;;;;;;;7.90;4.80;;;;;;;17.23;46.31;99720.92;106883;1263;72864;-38
2023/05/22 06:01:58;;;;;;;8.60;5.40;;;;;;;17.29;46.52;99723.19;106992;1261;61167;-37
2023/05/22 06:04:27;;;;;;;10.40;5.40;;;;;;;17.31;46.05;99719.89;106863;1261;61088;-38
2023/05/22 06:06:55;;;;;;;6.70;5.10;;;;;;;17.36;45.88;99720.02;106954;1263;73357;-38
2023/05/22 06:09:36;;;;;;;10.70;5.10;;;;;;;17.47;46.18;99719.99;106882;1263;67656;-37
2023/05/22 06:12:11;;;;;;;7.20;5.10;;;;;;;17.57;45.82;99719.11;106899;1263;73221;-37
2023/05/22 06:14:41;;;;;;;12.20;5.40;;;;;;;17.66;45.95;99708.77;106884;1263;60441;-38
2023/05/22 06:17:09;;;;;;;8.80;4.40;;;;;;;17.77;45.76;99710.42;106861;1263;61752;-37
2023/05/22 06:19:38;;;;;;;6.50;4.20;;;;;;;17.88;45.16;99702.00;106975;1262;72284;-37
2023/05/22 06:22:05;;;;;;;8.20;4.60;;;;;;;17.97;44.79;99703.42;106754;1263;67150;-37
2023/05/22 06:24:33;;;;;;;8.70;4.30;;;;;;;18.07;44.13;99702.34;107236;1256;72873;-37
2023/05/22 06:27:05;;;;;;;7.60;4.30;;;;;;;18.19;44.07;99706.36;107032;1256;60538;-37
2023/05/22 06:29:33;;;;;;;8.80;4.50;;;;;;;18.31;43.37;99705.73;107205;1256;61402;-37
2023/05/22 06:32:01;;;;;;;6.00;4.10;;;;;;;18.42;42.84;99702.83;107097;1256;71594;-37
2023/05/22 06:34:28;;;;;;;7.80;3.90;;;;;;;18.50;41.78;99702.37;107238;1256;70281;-37
2023/05/22 06:36:57;;;;;;;7.10;4.10;;;;;;;18.57;41.65;99701.71;107083;1256;73850;-38
2023/05/22 06:39:26;;;;;;;10.60;4.60;;;;;;;18.67;42.23;99697.48;107073;1256;61438;-37
2023/05/22 06:41:55;;;;;;;11.70;4.00;;;;;;;18.77;42.50;99698.57;107082;1257;61887;-38
2023/05/22 06:44:24;;;;;;;6.60;4.20;;;;;;;18.84;42.00;99697.17;107057;1256;74564;-38
2023/05/22 06:46:56;;;;;;;7.70;3.70;;;;;;;18.94;41.99;99700.08;107251;1257;69288;-38
2023/05/22 06:49:25;;;;;;;8.80;3.80;;;;;;;19.05;41.46;99699.01;107293;1256;72335;-37
2023/05/22 06:51:54;;;;;;;6.80;3.70;;;;;;;19.14;40.59;99693.51;107062;1260;60847;-37
2023/05/22 06:54:21;;;;;;;5.30;3.40;;;;;;;19.21;40.65;99693.66;107243;1256;60006;-38
2023/05/22 06:56:52;;;;;;;4.60;3.50;;;;;;;19.32;40.18;99696.60;107215;1256;73356;-37
2023/05/22 06:59:19;;;;;;;6.60;3.60;;;;;;;19.41;38.51;99688.23;107089;1257;69090;-38
2023/05/22 07:01:50;;;;;;;6.70;3.20;;;;;;;19.44;38.45;99686.17;107016;1256;71782;-38
2023/05/22 07:04:22;;;;;;;4.00;3.10;;;;;;;19.50;39.22;99688.81;107224;1257;61448;-38
2023/05/22 07:06:58;;;;;;;6.70;3.70;;;;;;;19.61;39.69;99686.15;107201;1256;59724;-38
2023/05/22 07:09:26;;;;;;;5.90;2.90;;;;;;;19.73;38.47;99686.55;107218;1257;73521;-38
2023/05/22 07:11:53;;;;;;;5.70;3.10;;;;;;;19.83;37.51;99685.55;107174;1263;69737;-37
2023/05/22 07:14:20;;;;;;;5.00;2.80;;;;;;;19.90;37.91;99689.46;107079;1259;74609;-39
2023/05/22 07:16:47;;;;;;;4.70;2.80;;;;;;;19.97;38.12;99685.52;107226;1256;60550;-37
2023/05/22 07:19:20;;;;;;;5.20;2.70;;;;;;;20.04;38.07;99687.30;107207;1262;59612;-37
2023/05/22 07:21:47;;;;;;;5.80;3.20;;;;;;;20.12;37.42;99688.91;107211;1256;73692;-37
2023/05/22 07:24:16;;;;;;;6.20;3.10;;;;;;;20.24;37.69;99691.71;107041;1256;68881;-37
2023/05/22 07:26:45;;;;;;;3.40;2.80;;;;;;;20.35;37.32;99689.93;107041;1257;71320;-37
2023/05/22 07:29:13;;;;;;;4.70;3.30;;;;;;;20.44;37.03;99687.20;107071;1258;60540;-37
2023/05/22 07:31:41;;;;;;;5.60;3.20;;;;;;;20.51;36.57;99683.79;107336;1257;60223;-37
2023/05/22 07:34:09;;;;;;;4.70;2.80;;;;;;;20.59;36.88;99687.59;107306;1257;71977;-37
2023/05/22 07:36:36;;;;;;;5.30;2.90;;;;;;;20.68;36.30;99689.17;107235;1256;70141;-37
2023/05/22 07:39:04;;;;;;;10.30;3.00;;;;;;;20.75;35.63;99690.93;107053;1257;74974;-37
2023/05/22 07:41:35;;;;;;;3.30;2.60;;;;;;;20.81;34.86;99688.94;107064;1262;61254;-37
2023/05/22 07:44:02;;;;;;;6.50;3.50;;;;;;;20.86;35.01;99688.08;107041;1263;60124;-37
2023/05/22 07:46:34;;;;;;;7.00;2.60;;;;;;;20.90;35.28;99689.10;107059;1256;72839;-38
2023/05/22 07:49:09;;;;;;;4.40;2.70;;;;;;;20.96;35.05;99688.67;107027;1256;68410;-38
2023/05/22 07:51:39;;;;;;;6.00;2.90;;;;;;;21.02;34.89;99686.44;107040;1256;74509;-37
2023/05/22 07:54:08;;;;;;;4.70;3.30;;;;;;;21.07;34.81;99684.08;107040;1259;60896;-38
2023/05/22 07:56:42;;;;;;;6.50;3.30;;;;;;;21.13;34.34;99682.88;107097;1256;61456;-37
2023/05/22 07:59:10;;;;;;;5.30;2.90;;;;;;;21.19;35.37;99673.85;107060;1256;75242;-37
2023/05/22 08:01:39;;;;;;;8.70;2.70;;;;;;;21.32;35.66;99674.31;107045;1262;69190;-37
2023/05/22 08:04:06;;;;;;;25.10;4.90;;;;;;;21.47;34.41;99672.98;107251;1256;72510;-37
2023/05/22 08:06:34;;;;;;;9.90;3.20;;;;;;;21.58;33.64;99674.27;107128;1256;60658;-37
2023/05/22 08:09:03;;;;;;;6.30;2.80;;;;;;;21.67;34.40;99673.52;107117;1256;61433;-37
2023/05/22 08:11:30;;;;;;;6.20;2.40;;;;;;;21.79;34.16;99669.32;107104;1256;73578;-37
2023/05/22 08:13:57;;;;;;;7.00;2.50;;;;;;;21.88;33.50;99667.70;107237;1256;68823;-37
2023/05/22 08:16:25;;;;;;;6.60;2.60;;;;;;;22.00;33.49;99665.58;107062;1256;74694;-37
2023/05/22 08:18:52;;;;;;;3.30;2.30;;;;;;;22.14;31.93;99661.39;107208;1256;60348;-37
2023/05/22 08:21:19;;;;;;;3.90;2.70;;;;;;;22.22;31.62;99659.00;106969;1257;61667;-37
2023/05/22 08:23:47;;;;;;;3.60;2.10;;;;;;;22.26;31.50;99660.95;107149;1256;74214;-37
2023/05/22 08:26:14;;;;;;;4.40;2.50;;;;;;;22.32;32.69;99659.22;107174;1256;70266;-37
2023/05/22 08:28:43;;;;;;;5.00;2.30;;;;;;;22.41;32.37;99660.04;107180;1257;75212;-37
2023/05/22 08:31:10;;;;;;;5.20;2.60;;;;;;;22.42;32.62;99658.27;107148;1256;61403;-37
2023/05/22 08:33:38;;;;;;;5.30;2.70;;;;;;;22.41;32.84;99656.88;107129;1256;62619;-38
2023/05/22 08:36:05;;;;;;;3.10;2.40;;;;;;;22.39;32.27;99657.06;107135;1257;75230;-37
2023/05/22 08:38:33;;;;;;;5.00;2.70;;;;;;;22.36;32.61;99657.73;107129;1262;69306;-37
2023/05/22 08:41:00;;;;;;;3.90;2.60;;;;;;;22.29;33.03;99663.16;107159;1256;74156;-37
2023/05/22 08:43:28;;;;;;;4.90;2.60;;;;;;;22.18;33.06;99664.14;107253;1257;62729;-37
2023/05/22 08:46:01;;;;;;;4.50;2.60;;;;;;;22.16;34.14;99656.45;107094;1256;61201;-37
2023/05/22 08:48:29;;;;;;;7.20;2.60;;;;;;;22.17;34.03;99653.35;107251;1256;73180;-37
2023/05/22 08:51:04;;;;;;;4.30;2.60;;;;;;;22.23;33.42;99657.61;107315;1256;69331;-37
2023/05/22 08:53:35;;;;;;;3.10;2.40;;;;;;;22.22;33.67;99657.80;107240;1256;74323;-37
2023/05/22 08:56:04;;;;;;;3.90;2.60;;;;;;;22.24;33.85;99658.23;107138;1256;62538;-37
2023/05/22 08:58:35;;;;;;;3.60;2.60;;;;;;;22.30;33.40;99658.73;107355;1256;61536;-37
2023/05/22 09:01:03;;;;;;;4.10;2.50;;;;;;;22.34;33.40;99654.20;107057;1256;75489;-37
2023/05/22 09:03:33;;;;;;;3.80;2.50;;;;;;;22.36;33.55;99650.21;107087;1257;67532;-37
2023/05/22 09:06:03;;;;;;;3.60;2.50;;;;;;;22.34;33.48;99655.39;107104;1256;73987;-37
2023/05/22 09:08:30;;;;;;;6.00;2.90;;;;;;;22.32;33.51;99652.34;107294;1261;61031;-37
2023/05/22 09:10:57;;;;;;;3.30;2.40;;;;;;;22.31;32.67;99653.56;107264;1256;61527;-37
2023/05/22 09:13:25;;;;;;;6.20;2.70;;;;;;;22.27;32.76;99651.83;107134;1257;74064;-37
2023/05/22 09:15:57;;;;;;;5.20;2.60;;;;;;;22.26;33.34;99654.02;107095;1256;69125;-37
2023/05/22 09:18:28;;;;;;;3.00;2.40;;;;;;;22.33;33.10;99652.02;107289;1256;73007;-37
2023/05/22 09:20:56;;;;;;;5.60;2.60;;;;;;;22.44;33.20;99652.76;107136;1258;61115;-37
2023/05/22 09:23:26;;;;;;;6.30;2.70;;;;;;;22.54;32.17;99647.87;107139;1257;60684;-37
2023/05/22 09:25:58;;;;;;;4.90;2.50;;;;;;;22.59;32.31;99642.29;107052;1256;75131;-37
2023/05/22 09:28:25;;;;;;;3.90;2.70;;;;;;;22.68;31.87;99648.70;107107;1257;69677;-37
2023/05/22 09:30:53;;;;;;;5.60;2.70;;;;;;;22.71;31.91;99641.60;107371;1257;71625;-37
2023/05/22 09:33:21;;;;;;;5.70;2.50;;;;;;;22.69;31.67;99642.59;107369;1256;61764;-37
2023/05/22 09:35:52;;;;;;;6.00;2.70;;;;;;;22.67;32.17;99641.14;107281;1261;60973;-37
2023/05/22 09:38:25;;;;;;;6.10;2.50;;;;;;;22.73;32.63;99638.40;107293;1257;74373;-37
2023/05/22 09:40:53;;;;;;;5.60;2.30;;;;;;;22.84;32.32;99635.58;107290;1256;69634;-38
2023/05/22 09:43:22;;;;;;;3.10;2.20;;;;;;;22.98;32.11;99629.98;107253;1262;73972;-38
2023/05/22 09:45:54;;;;;;;3.50;2.50;;;;;;;23.12;31.42;99628.91;107265;1261;60589;-37
2023/05/22 09:48:22;;;;;;;4.40;2.20;;;;;;;23.22;31.05;99630.19;107148;1256;62932;-37
2023/05/22 09:50:51;;;;;;;4.20;2.40;;;;;;;23.25;30.38;99631.54;107434;1260;76196;-38
2023/05/22 09:53:19;;;;;;;4.60;2.40;;;;;;;23.25;30.92;99624.82;107267;1257;70355;-37
2023/05/22 09:55:46;;;;;;;4.10;2.40;;;;;;;23.36;30.74;99620.55;107298;1257;74200;-37
2023/05/22 09:58:17;;;;;;;3.70;2.10;;;;;;;23.51;30.85;99621.25;107096;1259;60377;-37
2023/05/22 10:00:45;;;;;;;6.90;2.30;;;;;;;23.66;31.14;99620.70;107131;1257;62521;-37
2023/05/22 10:03:14;;;;;;;4.10;2.50;;;;;;;23.81;29.64;99625.80;107079;1257;76195;-37
2023/05/22 10:05:47;;;;;;;3.90;2.30;;;;;;;23.92;28.96;99617.00;107078;1264;70359;-37
2023/05/22 10:08:20;;;;;;;4.50;2.40;;;;;;;24.09;29.68;99613.98;107097;1260;71397;-37
2023/05/22 10:10:52;;;;;;;5.70;2.40;;;;;;;24.36;29.65;99610.29;107099;1259;61842;-38
2023/05/22 10:13:19;;;;;;;3.00;2.20;;;;;;;24.58;28.87;99604.31;107088;1258;62643;-37
2023/05/22 10:15:47;;;;;;;6.00;2.40;;;;;;;24.73;28.34;99607.98;107158;1261;75855;-38
2023/05/22 10:18:16;;;;;;;5.60;2.30;;;;;;;24.86;29.07;99605.86;107338;1259;67979;-37
2023/05/22 10:20:43;;;;;;;5.40;2.50;;;;;;;24.92;27.92;99607.65;107442;1258;75107;-37
2023/05/22 10:23:11;;;;;;;4.80;2.10;;;;;;;24.88;27.85;99602.34;107341;1256;61520;-37
2023/05/22 10:25:38;;;;;;;5.70;2.30;;;;;;;24.93;28.85;99599.15;107367;1256;62489;-37
2023/05/22 10:28:06;;;;;;;4.10;2.50;;;;;;;25.04;28.14;99605.79;107317;1255;76395;-37
2023/05/22 10:30:41;;;;;;;3.60;2.30;;;;;;;25.11;27.41;99598.33;107163;1259;70034;-38
2023/05/22 10:33:42;;;;;;;2.30;2.10;;;;;;;25.14;27.32;99596.15;107257;1256;73271;-37
2023/05/22 10:36:31;;;;;;;3.60;2.20;;;;;;;25.24;27.57;99592.30;107627;1257;60539;-37
2023/05/22 10:39:07;;;;;;;4.70;2.10;;;;;;;25.42;27.31;99590.80;107626;1256;62114;-38
2023/05/22 10:41:35;;;;;;;5.10;2.10;;;;;;;25.64;26.83;99586.04;107408;1258;75655;-37
2023/05/22 10:44:02;;;;;;;5.00;2.60;;;;;;;25.85;26.75;99582.96;107272;1254;69659;-37
2023/05/22 10:46:33;;;;;;;6.40;2.40;;;;;;;26.07;26.71;99579.17;107265;1256;73306;-37
2023/05/22 10:49:01;;;;;;;4.30;2.60;;;;;;;26.30;25.85;99577.27;107287;1256;61852;-37
2023/05/22 10:51:28;;;;;;;5.40;2.40;;;;;;;26.44;25.37;99575.58;107356;1254;61356;-38
2023/05/22 10:54:01;;;;;;;4.70;2.20;;;;;;;26.37;24.90;99574.05;107302;1254;76184;-37
2023/05/22 10:56:32;;;;;;;3.40;2.10;;;;;;;26.19;25.67;99574.46;107643;1253;70209;-38
2023/05/22 10:59:06;;;;;;;4.50;2.30;;;;;;;26.08;26.27;99575.64;107659;1254;74976;-38
2023/05/22 11:01:36;;;;;;;3.90;2.40;;;;;;;26.19;26.20;99569.83;107664;1254;61857;-38
2023/05/22 11:04:10;;;;;;;9.70;2.30;;;;;;;26.47;26.43;99563.92;107641;1253;60396;-38
2023/05/22 11:06:44;;;;;;;4.70;2.30;;;;;;;26.83;26.53;99559.42;107667;1256;73107;-38
2023/05/22 11:09:29;;;;;;;4.50;2.20;;;;;;;27.15;25.43;99559.02;107611;1251;70161;-38
2023/05/22 11:12:15;;;;;;;4.40;2.40;;;;;;;27.19;24.95;99558.45;107622;1254;74973;-38
2023/05/22 11:14:49;;;;;;;5.00;2.20;;;;;;;27.24;24.93;99561.98;107669;1256;61180;-38
2023/05/22 11:17:20;;;;;;;4.20;2.30;;;;;;;26.99;23.99;99564.23;107644;1257;60970;-38
2023/05/22 11:19:56;;;;;;;5.20;2.30;;;;;;;26.82;24.64;99561.52;107624;1255;73468;-38
2023/05/22 11:22:39;;;;;;;2.00;1.70;;;;;;;26.83;24.37;99558.77;107665;1259;68224;-38
2023/05/22 11:25:09;;;;;;;4.00;2.40;;;;;;;26.90;24.10;99552.30;107559;1256;72794;-38
2023/05/22 11:27:38;;;;;;;6.30;2.20;;;;;;;26.99;24.08;99551.48;107647;1254;60363;-38
2023/05/22 11:30:07;;;;;;;4.00;2.20;;;;;;;27.21;24.31;99556.20;107612;1256;62656;-38
2023/05/22 11:32:38;;;;;;;3.40;2.30;;;;;;;27.53;24.24;99536.02;107644;1251;76572;-38
2023/05/22 11:35:18;;;;;;;4.50;2.30;;;;;;;28.03;23.76;99541.89;107607;1254;68257;-38